Time;durP1;ratioP1;P1;durP2;ratioP2;P2;SDS_P1;SDS_P2;PMS_P1;PMS_P2;Temp;Humidity;BMP_temperature;BMP_pressure;BME280_temperature;BME280_humidity;BME280_pressure;Samples;Min_cycle;Max_cycle;Signal;HPM_P1;HPM_P2
2021/01/31 00:00:45;;;;;;;3.47;3.00;;;;;;;4.92;72.76;98941.97;6249298;23;20008;-77
2021/01/31 00:03:14;;;;;;;10.90;3.90;;;;;;;5.04;72.71;98949.88;6249414;22;20000;-76
2021/01/31 00:05:42;;;;;;;3.50;2.58;;;;;;;5.11;72.22;98944.19;6248113;22;20390;-76
2021/01/31 00:08:12;;;;;;;5.38;3.75;;;;;;;5.13;72.16;98942.03;6244134;22;20040;-76
2021/01/31 00:10:37;;;;;;;4.60;2.65;;;;;;;5.28;72.18;98946.69;6250783;22;19996;-77
2021/01/31 00:13:04;;;;;;;2.67;2.47;;;;;;;5.34;71.53;98957.25;6246046;22;20012;-76
2021/01/31 00:15:38;;;;;;;4.63;3.03;;;;;;;5.38;71.36;98952.94;6275049;22;20007;-76
2021/01/31 00:18:05;;;;;;;3.10;2.88;;;;;;;5.33;71.98;98942.09;6248224;22;20035;-75
2021/01/31 00:20:33;;;;;;;4.38;3.08;;;;;;;5.36;71.30;98943.44;6243334;23;20054;-76
2021/01/31 00:22:59;;;;;;;2.90;2.28;;;;;;;5.46;71.16;98958.91;6248644;22;20327;-76
2021/01/31 00:25:25;;;;;;;5.18;3.20;;;;;;;5.36;70.84;98940.72;6248611;23;20034;-78
2021/01/31 00:27:51;;;;;;;4.50;3.60;;;;;;;5.50;70.26;98957.28;6262353;22;19996;-77
2021/01/31 00:30:23;;;;;;;9.55;4.18;;;;;;;5.58;70.26;98957.59;6239597;22;20004;-76
2021/01/31 00:32:49;;;;;;;5.03;3.75;;;;;;;5.58;69.74;98964.91;6238864;22;20007;-77
2021/01/31 00:35:17;;;;;;;6.00;2.65;;;;;;;5.58;69.97;98967.63;6244559;22;20011;-76
2021/01/31 00:37:42;;;;;;;3.35;2.60;;;;;;;5.56;70.07;98964.34;6234237;22;20004;-76
2021/01/31 00:40:09;;;;;;;3.92;3.53;;;;;;;5.60;69.99;98970.88;6269848;22;20077;-76
2021/01/31 00:42:34;;;;;;;4.07;3.72;;;;;;;5.58;69.85;98967.63;6271363;22;20063;-77
2021/01/31 00:45:01;;;;;;;3.90;3.47;;;;;;;5.55;69.98;98979.81;6245512;23;20439;-75
2021/01/31 00:47:27;;;;;;;3.42;2.97;;;;;;;5.54;69.45;98972.75;6262953;22;20004;-76
2021/01/31 00:49:52;;;;;;;9.43;3.33;;;;;;;5.51;70.02;98961.66;6237290;23;20012;-76
2021/01/31 00:52:22;;;;;;;2.90;2.70;;;;;;;5.56;69.88;98967.06;6245310;23;20023;-76
2021/01/31 00:54:48;;;;;;;2.40;2.20;;;;;;;5.59;70.20;98963.81;6241129;23;20024;-76
2021/01/31 00:57:13;;;;;;;3.30;2.78;;;;;;;5.59;69.48;98963.81;6243034;23;20004;-76
2021/01/31 00:59:39;;;;;;;3.35;3.13;;;;;;;5.55;69.50;98963.53;6245537;22;20008;-76
2021/01/31 01:02:11;;;;;;;7.63;2.78;;;;;;;5.58;69.47;98973.03;6218484;23;20363;-76
2021/01/31 01:04:36;;;;;;;3.38;3.08;;;;;;;5.52;69.51;98974.09;6238979;22;20008;-76
2021/01/31 01:07:02;;;;;;;4.30;3.33;;;;;;;5.55;69.86;98979.00;6244160;23;20079;-76
2021/01/31 01:09:28;;;;;;;3.53;2.90;;;;;;;5.55;69.34;98992.56;6240040;22;20012;-77
2021/01/31 01:11:53;;;;;;;2.60;2.40;;;;;;;5.53;69.35;99002.84;6237959;22;20917;-77
2021/01/31 01:14:19;;;;;;;2.63;2.53;;;;;;;5.53;69.48;99008.28;6240937;22;20079;-77
2021/01/31 01:16:44;;;;;;;2.58;2.22;;;;;;;5.51;69.67;99007.75;6243025;23;20012;-77
2021/01/31 01:19:10;;;;;;;7.65;2.13;;;;;;;5.48;69.75;99021.84;6240311;23;20004;-77
2021/01/31 01:21:35;;;;;;;5.82;2.85;;;;;;;5.45;69.66;99025.06;6234422;22;20031;-77
2021/01/31 01:24:01;;;;;;;3.42;2.55;;;;;;;5.47;69.57;99022.91;6244964;23;20008;-77
2021/01/31 01:26:30;;;;;;;2.88;2.67;;;;;;;5.50;69.30;99030.50;6235823;22;20008;-77
2021/01/31 01:28:56;;;;;;;2.35;2.20;;;;;;;5.53;69.49;99024.53;6237413;23;20039;-77
2021/01/31 01:31:23;;;;;;;3.92;2.70;;;;;;;5.55;69.26;99025.09;6243939;22;20004;-77
2021/01/31 01:33:49;;;;;;;2.47;2.30;;;;;;;5.50;69.99;99016.94;6237676;23;20078;-77
2021/01/31 01:36:15;;;;;;;2.55;2.28;;;;;;;5.50;69.34;99023.19;6243397;23;20407;-77
2021/01/31 01:38:41;;;;;;;3.15;2.95;;;;;;;5.44;68.84;99007.16;6251870;22;20063;-77
2021/01/31 01:41:07;;;;;;;10.88;3.65;;;;;;;5.45;69.14;99011.50;6244056;23;20024;-78
2021/01/31 01:43:32;;;;;;;2.85;2.70;;;;;;;5.44;68.98;99016.09;6246895;23;20027;-77
2021/01/31 01:46:25;;;;;;;4.57;3.15;;;;;;;5.49;68.78;99012.59;6244762;23;20399;-77
2021/01/31 01:48:56;;;;;;;5.97;2.80;;;;;;;5.42;68.29;99013.66;6273689;22;20042;-76
2021/01/31 01:51:35;;;;;;;2.90;2.33;;;;;;;5.30;68.16;98994.13;6246835;23;20066;-76
2021/01/31 01:54:01;;;;;;;3.03;2.83;;;;;;;5.33;68.34;99009.03;6272943;22;20039;-76
2021/01/31 01:56:36;;;;;;;2.53;2.00;;;;;;;5.28;68.98;98990.03;6246566;23;20008;-76
2021/01/31 01:59:02;;;;;;;2.40;2.25;;;;;;;5.24;68.55;98984.31;6243466;22;20445;-76
2021/01/31 02:01:30;;;;;;;4.40;3.58;;;;;;;5.23;68.33;98982.72;6243213;23;20008;-75
2021/01/31 02:03:58;;;;;;;5.25;3.40;;;;;;;5.19;68.22;98995.16;6249141;22;20011;-76
2021/01/31 02:06:28;;;;;;;5.40;3.08;;;;;;;5.09;68.32;98992.41;6256781;22;20115;-76
2021/01/31 02:08:56;;;;;;;3.55;3.20;;;;;;;5.11;68.85;99001.09;6240222;22;20078;-75
2021/01/31 02:11:26;;;;;;;5.18;2.90;;;;;;;5.06;68.51;99002.69;6247845;22;19996;-76
2021/01/31 02:13:56;;;;;;;8.18;3.72;;;;;;;5.02;68.65;99003.47;6242918;22;20012;-75
2021/01/31 02:16:35;;;;;;;4.90;2.78;;;;;;;4.95;68.48;98995.63;6249349;22;20000;-76
2021/01/31 02:19:38;;;;;;;5.80;3.35;;;;;;;4.98;68.78;99003.22;6247692;23;20480;-76
2021/01/31 02:22:29;;;;;;;7.65;3.40;;;;;;;4.94;68.51;98993.97;6244676;23;20004;-75
2021/01/31 02:25:17;;;;;;;2.50;2.08;;;;;;;4.89;68.90;98999.34;6244961;23;20014;-75
2021/01/31 02:28:01;;;;;;;2.28;2.10;;;;;;;4.83;69.05;99011.25;6247037;23;20001;-75
2021/01/31 02:30:51;;;;;;;2.03;1.63;;;;;;;4.81;69.45;99010.72;6269418;22;20079;-78
2021/01/31 02:33:51;;;;;;;2.47;2.05;;;;;;;4.78;69.56;99019.34;6247997;23;20074;-75
2021/01/31 02:36:25;;;;;;;2.80;2.60;;;;;;;4.68;69.10;99026.31;6241254;22;20000;-76
2021/01/31 02:39:01;;;;;;;3.05;2.75;;;;;;;4.61;69.92;99030.34;6240249;23;20039;-77
2021/01/31 02:41:59;;;;;;;3.03;2.47;;;;;;;4.56;69.69;99041.97;6247025;22;20059;-75
2021/01/31 02:44:27;;;;;;;3.15;2.95;;;;;;;4.46;69.38;99050.00;6196474;22;20000;-75
2021/01/31 02:46:57;;;;;;;4.13;2.30;;;;;;;4.39;69.82;99038.59;6247102;22;20028;-75
2021/01/31 02:49:38;;;;;;;4.85;2.40;;;;;;;4.44;70.49;99046.72;6242035;22;20007;-76
2021/01/31 02:52:25;;;;;;;2.33;2.22;;;;;;;4.43;70.14;99055.94;6274137;22;20115;-77
2021/01/31 02:55:01;;;;;;;4.30;2.50;;;;;;;4.27;70.26;99053.09;6244301;23;20054;-77
2021/01/31 02:57:52;;;;;;;3.08;2.47;;;;;;;4.17;70.12;99063.84;6271433;22;20000;-77
2021/01/31 03:00:24;;;;;;;7.60;2.30;;;;;;;3.93;70.37;99042.53;6271372;22;20000;-76
2021/01/31 03:02:58;;;;;;;7.07;2.30;;;;;;;3.83;70.69;99042.44;6246446;23;20003;-77
2021/01/31 03:05:29;;;;;;;4.22;2.33;;;;;;;3.76;71.09;99055.34;6268781;22;19996;-76
2021/01/31 03:08:04;;;;;;;3.67;2.08;;;;;;;3.59;71.01;99047.31;6247478;22;20008;-76
2021/01/31 03:11:22;;;;;;;2.55;1.38;;;;;;;3.51;71.67;99053.19;6243909;22;20004;-76
2021/01/31 03:13:57;;;;;;;3.22;1.75;;;;;;;3.34;71.04;99045.94;6176943;23;20342;-75
2021/01/31 03:16:35;;;;;;;6.78;1.80;;;;;;;3.26;72.30;99039.13;6246092;22;20019;-76
2021/01/31 03:19:04;;;;;;;2.40;1.15;;;;;;;3.16;71.76;99013.88;6245836;22;20007;-76
2021/01/31 03:21:33;;;;;;;1.25;1.15;;;;;;;3.16;72.41;99011.97;6267982;22;20394;-75
2021/01/31 03:24:04;;;;;;;1.92;1.30;;;;;;;3.16;71.87;99014.69;6245080;22;20062;-76
2021/01/31 03:26:38;;;;;;;1.95;1.38;;;;;;;3.03;71.69;99006.97;6238257;23;20027;-76
2021/01/31 03:29:04;;;;;;;4.93;1.50;;;;;;;2.89;72.15;99001.94;6247336;22;20082;-75
2021/01/31 03:31:35;;;;;;;1.00;0.90;;;;;;;2.89;72.10;99001.94;6219705;23;20038;-76
2021/01/31 03:34:08;;;;;;;1.35;0.77;;;;;;;2.80;72.64;99008.81;6246442;22;20050;-75
2021/01/31 03:36:37;;;;;;;4.68;1.15;;;;;;;2.75;72.79;99012.25;6259200;22;20008;-76
2021/01/31 03:39:04;;;;;;;4.60;1.05;;;;;;;2.65;72.62;99001.31;6263668;22;20000;-77
2021/01/31 03:41:31;;;;;;;0.70;0.50;;;;;;;2.61;72.58;99006.41;6239870;23;20015;-76
2021/01/31 03:43:56;;;;;;;1.58;0.90;;;;;;;2.64;71.82;99010.47;6246845;23;20026;-75
2021/01/31 03:46:30;;;;;;;7.15;1.10;;;;;;;2.57;71.80;98999.88;6267826;22;20012;-76
2021/01/31 03:49:01;;;;;;;0.75;0.63;;;;;;;2.53;72.85;98997.94;6276940;22;20016;-76
2021/01/31 03:51:30;;;;;;;2.22;0.90;;;;;;;2.49;72.29;99013.78;6279406;22;20008;-76
2021/01/31 03:53:57;;;;;;;2.47;0.80;;;;;;;2.36;72.30;99000.63;6223510;23;20422;-75
2021/01/31 03:56:31;;;;;;;1.60;0.68;;;;;;;2.33;72.91;99006.53;6245587;23;20072;-77
2021/01/31 03:58:59;;;;;;;2.30;0.65;;;;;;;2.21;72.82;98995.84;6241632;22;20000;-76
2021/01/31 04:01:26;;;;;;;3.38;0.70;;;;;;;2.20;73.00;99015.75;6258079;22;20004;-76
2021/01/31 04:04:10;;;;;;;0.65;0.35;;;;;;;2.12;72.77;99019.69;6271285;22;20016;-76
2021/01/31 04:06:37;;;;;;;0.30;0.30;;;;;;;2.10;72.42;99032.59;6269670;22;20326;-75
2021/01/31 04:09:05;;;;;;;0.85;0.73;;;;;;;2.06;72.34;99037.66;6245848;22;20000;-76
2021/01/31 04:11:40;;;;;;;2.30;0.80;;;;;;;2.03;73.30;99040.03;6262843;22;20027;-75
2021/01/31 04:14:54;;;;;;;0.50;0.50;;;;;;;1.97;72.64;99041.00;6244749;22;20004;-74
2021/01/31 04:17:20;;;;;;;1.90;0.93;;;;;;;1.85;73.66;99031.09;6229328;23;20419;-76
2021/01/31 04:19:46;;;;;;;1.65;0.95;;;;;;;1.81;72.97;99046.13;6242196;23;20012;-76
2021/01/31 04:22:12;;;;;;;4.55;0.85;;;;;;;1.72;73.67;99031.41;6271275;22;20035;-77
2021/01/31 04:24:37;;;;;;;5.40;0.85;;;;;;;1.65;72.82;99036.13;6246268;22;20012;-75
2021/01/31 04:27:03;;;;;;;5.68;1.00;;;;;;;1.59;73.32;99037.91;6238261;22;20008;-77
2021/01/31 04:29:29;;;;;;;2.75;0.68;;;;;;;1.50;74.31;99029.38;6241663;23;20303;-75
2021/01/31 04:31:54;;;;;;;0.52;0.43;;;;;;;1.45;73.23;99025.81;6267725;22;20066;-76
2021/01/31 04:34:20;;;;;;;1.70;0.40;;;;;;;1.41;74.21;99022.75;6242489;22;20058;-76
2021/01/31 04:36:45;;;;;;;0.52;0.52;;;;;;;1.36;73.22;99017.28;6247926;22;20042;-75
2021/01/31 04:39:12;;;;;;;1.95;0.60;;;;;;;1.35;73.95;99015.63;6237707;23;20102;-74
2021/01/31 04:41:39;;;;;;;2.08;0.30;;;;;;;1.27;74.61;99003.38;6243003;22;20023;-75
2021/01/31 04:44:07;;;;;;;1.77;0.30;;;;;;;1.27;74.22;99002.53;6246398;22;20003;-75
2021/01/31 04:46:47;;;;;;;2.67;0.40;;;;;;;1.26;73.95;99009.00;6234432;22;20008;-76
2021/01/31 04:49:43;;;;;;;0.73;0.35;;;;;;;1.25;75.03;99004.66;6247109;22;20004;-76
2021/01/31 04:52:22;;;;;;;1.02;0.40;;;;;;;1.18;75.07;99005.63;6270642;22;20008;-78
2021/01/31 04:55:00;;;;;;;0.82;0.50;;;;;;;1.16;74.33;99005.03;6261466;22;20419;-77
2021/01/31 04:57:34;;;;;;;0.95;0.40;;;;;;;1.11;75.11;99004.94;6269601;22;20015;-76
2021/01/31 05:00:01;;;;;;;0.80;0.32;;;;;;;1.06;73.91;99004.03;6238653;23;20665;-76
2021/01/31 05:02:47;;;;;;;3.05;0.65;;;;;;;1.03;74.22;99006.13;6247375;23;20290;-75
2021/01/31 05:05:20;;;;;;;;;;;;;;;0.99;75.06;99007.69;6271699;22;20487;-76
2021/01/31 05:07:56;;;;;;;3.55;0.77;;;;;;;0.95;75.46;99011.06;6239035;22;19946;-76
2021/01/31 05:10:22;;;;;;;1.65;0.22;;;;;;;0.92;75.37;99006.16;6246380;22;20079;-76
2021/01/31 05:13:06;;;;;;;0.28;0.17;;;;;;;0.95;74.08;99000.28;6244316;22;20027;-75
2021/01/31 05:15:41;;;;;;;1.70;0.40;;;;;;;0.89;74.27;98996.66;6271417;22;20004;-76
2021/01/31 05:18:08;;;;;;;2.22;0.52;;;;;;;0.90;74.42;99008.28;6235047;23;20319;-76
2021/01/31 05:20:36;;;;;;;0.30;0.22;;;;;;;0.80;74.34;98987.34;6264718;22;20657;-76
2021/01/31 05:23:05;;;;;;;0.63;0.50;;;;;;;0.75;74.51;98996.13;6240120;22;20049;-77
2021/01/31 05:25:36;;;;;;;0.20;0.20;;;;;;;0.83;74.37;99003.00;6266732;22;20367;-75
2021/01/31 05:28:03;;;;;;;3.35;0.30;;;;;;;0.73;74.63;98986.66;6262604;22;20082;-75
2021/01/31 05:30:32;;;;;;;0.20;0.20;;;;;;;0.81;75.51;99000.56;6240255;22;20497;-76
2021/01/31 05:33:22;;;;;;;0.08;0.08;;;;;;;0.80;75.03;98984.66;6243876;22;20004;-75
2021/01/31 05:36:12;;;;;;;3.25;0.13;;;;;;;0.82;74.48;98980.66;6247266;22;20062;-76
2021/01/31 05:38:42;;;;;;;1.08;0.28;;;;;;;0.84;75.07;98988.50;6248538;22;20008;-75
2021/01/31 05:41:36;;;;;;;0.75;0.38;;;;;;;0.83;75.15;98987.69;6242372;22;20011;-76
2021/01/31 05:44:06;;;;;;;0.50;0.10;;;;;;;0.81;74.30;98979.03;6272751;22;19996;-76
2021/01/31 05:46:42;;;;;;;2.03;0.50;;;;;;;0.81;75.29;98984.41;6265590;22;20034;-74
2021/01/31 05:49:33;;;;;;;2.03;0.25;;;;;;;0.77;74.10;98985.94;6249313;22;20277;-75
2021/01/31 05:51:59;;;;;;;2.38;0.47;;;;;;;0.73;74.74;98982.09;6270713;22;20022;-76
2021/01/31 05:54:36;;;;;;;1.13;0.30;;;;;;;0.70;74.79;98974.47;6250733;22;20015;-77
2021/01/31 05:57:03;;;;;;;0.10;0.10;;;;;;;0.68;75.38;98960.47;6251026;22;20000;-76
2021/01/31 05:59:40;;;;;;;6.20;0.40;;;;;;;0.72;75.10;98964.31;6252613;22;20007;-76
2021/01/31 06:02:06;;;;;;;2.83;0.40;;;;;;;0.64;74.84;98951.22;6250681;22;20423;-77
2021/01/31 06:04:32;;;;;;;0.55;0.20;;;;;;;0.71;75.17;98951.09;6245330;22;20027;-78
2021/01/31 06:07:10;;;;;;;0.98;0.57;;;;;;;0.69;75.14;98935.19;6249275;22;20004;-76
2021/01/31 06:09:47;;;;;;;2.40;0.45;;;;;;;0.74;74.41;98940.66;6245819;22;20063;-76
2021/01/31 06:12:34;;;;;;;2.75;0.50;;;;;;;0.71;75.41;98949.22;6242958;22;19996;-76
2021/01/31 06:15:08;;;;;;;0.70;0.70;;;;;;;0.68;74.40;98955.06;6271741;22;20005;-77
2021/01/31 06:17:35;;;;;;;0.30;0.22;;;;;;;0.67;74.56;98948.06;6267847;22;20055;-77
2021/01/31 06:20:30;;;;;;;0.40;0.35;;;;;;;0.64;74.49;98940.44;6250684;22;20010;-77
2021/01/31 06:22:58;;;;;;;4.28;0.30;;;;;;;0.56;74.72;98928.19;6261802;22;20027;-77
2021/01/31 06:25:27;;;;;;;0.70;0.38;;;;;;;0.66;75.51;98930.28;6248822;22;20011;-77
2021/01/31 06:28:10;;;;;;;0.52;0.40;;;;;;;0.71;74.94;98930.38;6267277;22;20000;-76
2021/01/31 06:31:18;;;;;;;0.43;0.40;;;;;;;0.79;75.45;98932.72;6266395;22;20083;-76
2021/01/31 06:33:45;;;;;;;1.92;0.80;;;;;;;0.71;74.68;98925.00;6271901;22;20004;-77
2021/01/31 06:36:45;;;;;;;0.45;0.45;;;;;;;0.78;74.65;98935.63;6241931;23;20014;-76
2021/01/31 06:39:22;;;;;;;0.32;0.10;;;;;;;0.74;74.23;98946.03;6235688;22;20057;-76
2021/01/31 06:42:06;;;;;;;0.25;0.10;;;;;;;0.71;74.58;98951.09;6253456;23;20004;-76
2021/01/31 06:45:02;;;;;;;1.65;0.30;;;;;;;0.70;74.90;98966.41;6244780;22;19996;-76
2021/01/31 06:47:43;;;;;;;0.85;0.32;;;;;;;0.67;73.96;98975.78;6238627;23;20004;-75
2021/01/31 06:50:35;;;;;;;0.22;0.10;;;;;;;0.65;75.16;98958.25;6274450;22;20011;-76
2021/01/31 06:53:12;;;;;;;0.90;0.30;;;;;;;0.61;74.75;98939.03;6268185;22;20043;-75
2021/01/31 06:55:44;;;;;;;0.32;0.30;;;;;;;0.67;74.93;98945.34;6245441;22;20327;-74
2021/01/31 06:58:16;;;;;;;0.20;0.20;;;;;;;0.67;74.37;98940.81;6241155;22;20004;-75
2021/01/31 07:01:20;;;;;;;0.20;0.20;;;;;;;0.62;74.19;98931.81;6274249;22;20035;-76
2021/01/31 07:04:18;;;;;;;1.27;0.20;;;;;;;0.64;74.03;98930.53;6245112;22;20350;-75
2021/01/31 07:06:59;;;;;;;0.30;0.15;;;;;;;0.60;74.38;98923.97;6266419;22;20028;-76
2021/01/31 07:09:40;;;;;;;1.38;0.45;;;;;;;0.57;73.73;98916.38;6273795;22;20001;-74
2021/01/31 07:12:19;;;;;;;0.20;0.20;;;;;;;0.49;74.03;98914.88;6272809;22;20018;-75
2021/01/31 07:15:18;;;;;;;1.90;0.20;;;;;;;0.42;74.26;98902.59;6273458;22;20024;-75
2021/01/31 07:18:01;;;;;;;0.35;0.30;;;;;;;0.51;74.84;98920.84;6245530;22;19996;-76
2021/01/31 07:20:31;;;;;;;1.00;0.80;;;;;;;0.51;74.87;98915.47;6246892;22;20007;-77
2021/01/31 07:22:57;;;;;;;0.65;0.40;;;;;;;0.52;75.09;98919.78;6270962;22;20034;-75
2021/01/31 07:25:35;;;;;;;0.32;0.32;;;;;;;0.51;75.07;98910.09;6250787;22;20024;-75
2021/01/31 07:28:25;;;;;;;0.30;0.30;;;;;;;0.56;74.08;98911.25;6253159;22;20415;-75
2021/01/31 07:31:08;;;;;;;1.85;0.20;;;;;;;0.58;74.18;98917.19;6272892;22;20074;-75
2021/01/31 07:33:54;;;;;;;2.33;0.30;;;;;;;0.54;74.50;98902.59;6251564;23;20050;-76
2021/01/31 07:36:21;;;;;;;0.20;0.20;;;;;;;0.61;74.04;98904.06;6244157;22;20328;-75
2021/01/31 07:39:02;;;;;;;0.28;0.20;;;;;;;0.65;75.02;98904.44;6251355;23;20004;-75
2021/01/31 07:41:29;;;;;;;0.10;0.10;;;;;;;0.63;75.31;98898.47;6248624;22;20007;-78
2021/01/31 07:44:03;;;;;;;0.38;0.20;;;;;;;0.73;74.24;98914.00;6219721;23;20320;-76
2021/01/31 07:46:29;;;;;;;0.38;0.15;;;;;;;0.75;74.16;98910.00;6272414;22;20006;-76
2021/01/31 07:48:56;;;;;;;1.10;1.00;;;;;;;0.79;75.07;98919.25;6249866;23;20028;-76
2021/01/31 07:51:25;;;;;;;0.10;0.10;;;;;;;0.83;74.59;98930.34;6245768;23;20012;-76
2021/01/31 07:53:50;;;;;;;1.85;0.20;;;;;;;0.87;73.79;98923.44;6257162;22;20000;-77
2021/01/31 07:56:35;;;;;;;0.85;0.20;;;;;;;0.90;74.65;98912.19;6250671;22;20301;-74
2021/01/31 07:59:09;;;;;;;0.15;0.10;;;;;;;0.98;74.64;98914.50;6278140;22;20043;-78
2021/01/31 08:01:41;;;;;;;1.00;0.30;;;;;;;1.05;74.03;98922.41;6269283;22;20015;-75
2021/01/31 08:04:47;;;;;;;0.85;0.20;;;;;;;1.11;73.54;98924.19;6270566;22;20011;-75
2021/01/31 08:07:51;;;;;;;0.40;0.40;;;;;;;1.15;74.12;98916.41;6269455;22;20435;-78
2021/01/31 08:10:40;;;;;;;0.35;0.17;;;;;;;1.26;73.78;98920.94;6273384;22;20012;-77
2021/01/31 08:13:10;;;;;;;0.30;0.20;;;;;;;1.24;73.70;98906.06;6249688;23;20018;-77
2021/01/31 08:15:41;;;;;;;0.50;0.10;;;;;;;1.30;74.19;98899.72;6251582;22;20043;-78
2021/01/31 08:18:09;;;;;;;0.13;0.13;;;;;;;1.40;73.96;98899.88;6249898;23;20343;-77
2021/01/31 08:20:43;;;;;;;0.47;0.22;;;;;;;1.42;74.11;98899.66;6250571;23;20319;-76
2021/01/31 08:23:14;;;;;;;0.20;0.20;;;;;;;1.52;72.79;98906.03;6251378;22;20074;-76
2021/01/31 08:26:05;;;;;;;0.40;0.20;;;;;;;1.60;73.52;98914.78;6251066;22;20335;-76
2021/01/31 08:28:43;;;;;;;0.20;0.20;;;;;;;1.63;73.97;98914.28;6242324;23;20008;-77
2021/01/31 08:31:17;;;;;;;0.40;0.20;;;;;;;1.66;73.26;98903.81;6271222;22;20004;-76
2021/01/31 08:34:12;;;;;;;0.30;0.30;;;;;;;1.77;73.78;98899.44;6249411;22;20000;-76
2021/01/31 08:36:38;;;;;;;0.13;0.13;;;;;;;1.73;73.29;98864.06;6243799;22;20091;-75
2021/01/31 08:39:42;;;;;;;0.30;0.30;;;;;;;2.03;72.96;98876.38;6246587;23;20083;-76
2021/01/31 08:42:11;;;;;;;0.30;0.20;;;;;;;2.06;73.41;98875.06;6251099;22;20004;-77
2021/01/31 08:44:40;;;;;;;0.32;0.20;;;;;;;2.16;72.78;98883.28;6247275;22;20014;-78
2021/01/31 08:47:07;;;;;;;1.30;0.20;;;;;;;2.37;71.95;98905.97;6246048;23;20008;-76
2021/01/31 08:49:33;;;;;;;0.40;0.40;;;;;;;2.49;73.21;98911.25;6255145;23;20004;-77
2021/01/31 08:52:23;;;;;;;0.10;0.10;;;;;;;2.67;72.51;98902.00;6224845;23;20008;-77
2021/01/31 08:54:59;;;;;;;0.20;0.13;;;;;;;2.71;72.28;98896.94;6270410;22;20083;-77
2021/01/31 08:57:26;;;;;;;1.63;0.30;;;;;;;2.92;71.71;98931.22;6247583;23;20524;-77
2021/01/31 08:59:51;;;;;;;0.20;0.20;;;;;;;3.01;72.03;98933.44;6251458;23;20015;-78
2021/01/31 09:02:28;;;;;;;0.20;0.10;;;;;;;3.07;71.90;98916.25;6247943;22;20008;-76
2021/01/31 09:05:00;;;;;;;0.50;0.30;;;;;;;3.05;71.37;98892.22;6240605;22;20387;-77
2021/01/31 09:08:22;;;;;;;0.20;0.20;;;;;;;3.21;72.02;98868.84;6249501;22;20007;-77
2021/01/31 09:10:50;;;;;;;0.88;0.40;;;;;;;3.27;71.53;98851.63;6233773;23;20008;-77
2021/01/31 09:13:27;;;;;;;1.00;0.60;;;;;;;3.37;71.22;98863.59;6245157;22;20012;-77
2021/01/31 09:15:53;;;;;;;0.10;0.10;;;;;;;3.54;70.91;98877.78;6250443;23;20001;-77
2021/01/31 09:18:25;;;;;;;0.43;0.20;;;;;;;3.64;71.30;98864.34;6248098;22;20335;-78
2021/01/31 09:21:28;;;;;;;0.00;0.00;;;;;;;3.75;70.50;98862.56;6274691;22;20087;-77
2021/01/31 09:24:10;;;;;;;0.45;0.10;;;;;;;3.67;70.14;98850.31;6219727;23;20020;-76
2021/01/31 09:26:42;;;;;;;0.00;0.00;;;;;;;3.80;70.50;98867.19;6225457;23;19997;-74
2021/01/31 09:29:11;;;;;;;0.10;0.00;;;;;;;3.82;70.63;98852.31;6211687;23;20051;-74
2021/01/31 09:31:42;;;;;;;0.20;0.20;;;;;;;3.92;70.08;98848.88;6188266;23;20001;-75
2021/01/31 09:34:08;;;;;;;0.90;0.32;;;;;;;3.80;69.55;98826.63;6217380;23;20793;-75
2021/01/31 09:36:36;;;;;;;0.15;0.10;;;;;;;3.92;69.67;98835.34;6217869;23;20000;-75
2021/01/31 09:39:05;;;;;;;2.25;0.52;;;;;;;3.95;69.90;98837.53;6210267;23;20088;-77
2021/01/31 09:41:31;;;;;;;0.20;0.15;;;;;;;3.95;69.62;98829.41;6212228;23;20087;-74
2021/01/31 09:44:00;;;;;;;0.17;0.17;;;;;;;3.99;70.00;98814.28;6210901;23;20068;-75
2021/01/31 09:46:27;;;;;;;0.65;0.20;;;;;;;4.21;69.52;98821.44;6210064;23;20074;-77
2021/01/31 09:49:06;;;;;;;0.28;0.13;;;;;;;4.29;69.44;98809.28;6213788;23;20004;-76
2021/01/31 09:51:34;;;;;;;0.43;0.20;;;;;;;4.34;69.49;98810.13;6212900;23;20008;-77
2021/01/31 09:54:14;;;;;;;0.32;0.28;;;;;;;4.46;69.18;98806.38;6216304;23;20062;-80
2021/01/31 09:56:42;;;;;;;0.38;0.15;;;;;;;4.45;68.95;98788.50;6214767;23;20091;-77
2021/01/31 09:59:31;;;;;;;0.63;0.20;;;;;;;4.54;68.86;98786.91;6220104;23;20004;-79
2021/01/31 10:02:22;;;;;;;3.35;0.17;;;;;;;4.50;68.44;98775.00;6213440;23;20007;-78
2021/01/31 10:05:01;;;;;;;0.22;0.22;;;;;;;4.54;68.12;98773.38;6187914;23;20324;-78
2021/01/31 10:07:51;;;;;;;0.98;0.32;;;;;;;4.48;68.57;98755.50;6232013;23;20000;-79
2021/01/31 10:10:25;;;;;;;0.40;0.20;;;;;;;4.52;68.24;98751.97;6231269;23;20027;-78
2021/01/31 10:13:11;;;;;;;0.20;0.20;;;;;;;4.47;67.99;98729.53;6226226;23;20028;-79
2021/01/31 10:15:40;;;;;;;0.65;0.40;;;;;;;4.49;68.22;98713.81;6226056;23;20008;-79
2021/01/31 10:18:13;;;;;;;0.10;0.10;;;;;;;4.53;67.79;98734.66;6221053;23;20004;-79
2021/01/31 10:20:40;;;;;;;2.22;0.40;;;;;;;4.52;67.52;98746.56;6195359;23;20067;-79
2021/01/31 10:23:06;;;;;;;0.70;0.30;;;;;;;4.48;67.49;98761.75;6245051;22;20050;-78
2021/01/31 10:25:36;;;;;;;0.22;0.22;;;;;;;4.37;66.95;98754.66;6276856;22;20032;-79
2021/01/31 10:28:03;;;;;;;0.57;0.57;;;;;;;4.35;67.34;98763.06;6248591;23;20004;-75
2021/01/31 10:30:45;;;;;;;1.27;0.35;;;;;;;4.37;67.45;98782.53;6250519;23;20004;-77
2021/01/31 10:33:41;;;;;;;0.43;0.20;;;;;;;4.36;67.83;98775.47;6247699;23;20008;-78
2021/01/31 10:36:31;;;;;;;1.98;0.55;;;;;;;4.34;67.99;98766.81;6250301;22;20033;-78
2021/01/31 10:39:23;;;;;;;0.20;0.20;;;;;;;4.36;67.54;98764.66;6247358;22;20004;-77
2021/01/31 10:41:49;;;;;;;1.05;0.40;;;;;;;4.28;67.53;98751.66;6249346;23;20054;-78
2021/01/31 10:44:29;;;;;;;0.35;0.35;;;;;;;4.42;68.19;98753.84;6222301;23;20015;-78
2021/01/31 10:46:55;;;;;;;0.38;0.30;;;;;;;4.46;68.10;98757.66;6248036;23;20000;-77
2021/01/31 10:49:21;;;;;;;2.15;0.47;;;;;;;4.51;67.93;98734.13;6249242;22;20004;-75
2021/01/31 10:51:47;;;;;;;0.35;0.32;;;;;;;4.46;68.10;98714.34;6249201;23;20004;-79
2021/01/31 10:54:15;;;;;;;2.03;1.10;;;;;;;4.52;67.33;98702.44;6267313;22;20019;-77
2021/01/31 10:56:41;;;;;;;1.05;0.43;;;;;;;4.51;67.78;98696.25;6252208;22;20036;-78
2021/01/31 10:59:06;;;;;;;2.22;0.60;;;;;;;4.55;67.68;98685.66;6248183;22;20000;-76
2021/01/31 11:01:32;;;;;;;3.78;0.50;;;;;;;4.60;67.78;98684.84;6252555;23;20000;-78
2021/01/31 11:03:58;;;;;;;0.60;0.60;;;;;;;4.58;67.59;98668.88;6254532;23;20004;-77
2021/01/31 11:06:25;;;;;;;2.80;0.52;;;;;;;4.55;67.31;98658.59;6248450;23;20000;-76
2021/01/31 11:08:51;;;;;;;0.70;0.70;;;;;;;4.58;67.48;98663.47;6249483;22;20449;-75
2021/01/31 11:11:21;;;;;;;1.02;0.60;;;;;;;4.50;67.40;98647.78;6249172;22;20031;-75
2021/01/31 11:13:48;;;;;;;0.95;0.60;;;;;;;4.46;67.38;98633.16;6242422;23;20004;-77
2021/01/31 11:16:16;;;;;;;1.00;0.70;;;;;;;4.46;67.50;98628.53;6243356;22;20000;-75
2021/01/31 11:18:41;;;;;;;1.60;0.88;;;;;;;4.55;67.51;98637.75;6273077;22;20000;-76
2021/01/31 11:21:07;;;;;;;1.48;0.80;;;;;;;4.54;67.52;98621.78;6242935;22;20015;-77
2021/01/31 11:23:35;;;;;;;0.77;0.60;;;;;;;4.48;67.57;98617.44;6250202;22;20020;-76
2021/01/31 11:26:06;;;;;;;0.60;0.57;;;;;;;4.47;67.54;98607.72;6245334;22;20012;-76
2021/01/31 11:28:31;;;;;;;0.98;0.63;;;;;;;4.48;67.69;98601.19;6244686;22;20012;-73
2021/01/31 11:30:59;;;;;;;1.08;0.40;;;;;;;4.48;67.53;98599.31;6243523;23;20008;-75
2021/01/31 11:33:25;;;;;;;0.80;0.50;;;;;;;4.52;67.50;98608.50;6249637;22;20019;-77
2021/01/31 11:35:50;;;;;;;2.65;0.60;;;;;;;4.40;67.44;98586.31;6245424;22;20015;-78
2021/01/31 11:38:16;;;;;;;7.68;1.27;;;;;;;4.44;67.46;98579.28;6248652;23;20007;-76
2021/01/31 11:40:41;;;;;;;0.98;0.70;;;;;;;4.49;67.78;98579.28;6248389;23;20008;-75
2021/01/31 11:43:06;;;;;;;1.17;1.08;;;;;;;4.50;67.49;98590.94;6240683;23;20008;-77
2021/01/31 11:45:34;;;;;;;1.33;0.90;;;;;;;4.43;67.53;98574.16;6272170;22;20066;-76
2021/01/31 11:48:00;;;;;;;3.00;1.55;;;;;;;4.37;67.35;98570.63;6269810;22;20008;-75
2021/01/31 11:50:26;;;;;;;2.85;1.10;;;;;;;4.39;67.30;98584.69;6245673;23;20123;-76
2021/01/31 11:52:52;;;;;;;1.20;1.10;;;;;;;4.34;67.62;98571.19;6245587;22;20008;-77
2021/01/31 11:55:18;;;;;;;2.97;1.50;;;;;;;4.39;67.97;98573.06;6248120;23;20015;-78
2021/01/31 11:57:43;;;;;;;4.70;1.45;;;;;;;4.35;67.62;98568.19;6220346;22;20311;-73
2021/01/31 12:00:12;;;;;;;4.85;1.50;;;;;;;4.34;67.41;98555.75;6271054;22;20004;-76
2021/01/31 12:02:38;;;;;;;2.58;1.27;;;;;;;4.32;67.86;98557.91;6272123;22;20008;-76
2021/01/31 12:05:05;;;;;;;2.50;1.17;;;;;;;4.32;67.75;98549.78;6269649;22;20027;-76
2021/01/31 12:07:30;;;;;;;4.35;1.98;;;;;;;4.22;67.63;98530.84;6246676;22;20011;-78
2021/01/31 12:10:03;;;;;;;1.55;1.13;;;;;;;4.26;67.73;98531.13;6254532;22;20008;-78
2021/01/31 12:12:28;;;;;;;8.82;1.70;;;;;;;4.31;67.80;98534.63;6252155;22;20068;-76